EZY847 EGKK-EGPE
Flight info
| Callsign | EZY847 |
|---|---|
| Flight time | 1h 59m |
| Altitude | 36000 |
| Route | LAM L10 BPK UN601 RIBEL DCT ERSON/N0417F250 N560 NESDI DCT GUSSI |
| Aircraft | A320/M-SDE3FGHIRWY/LB1 |
Departure
| Time | 2026-04-16 11:10 |
|---|---|
| Airport | London Gatwick Airport (EGKK) |
Arrival
| Time | 2026-04-16 13:10 |
|---|---|
| Airport | Inverness Airport (EGPE) |
| Time | Latitude | Longitude | Altitude | Speed | Heading |
|---|---|---|---|---|---|
| 2026-04-16 10:40 | 51.15929 | -0.17155 | 211 ft | 0 kts | 315° |
| 2026-04-16 10:59 | 51.15927 | -0.17151 | 205 ft | 3 kts | 315° |
| 2026-04-16 10:59 | 51.15909 | -0.17122 | 217 ft | 4 kts | 315° |
| 2026-04-16 10:59 | 51.15889 | -0.17092 | 215 ft | 4 kts | 322° |
| 2026-04-16 10:59 | 51.15867 | -0.17075 | 213 ft | 4 kts | 2° |
| 2026-04-16 11:00 | 51.15841 | -0.17080 | 211 ft | 4 kts | 5° |
| 2026-04-16 11:00 | 51.15814 | -0.17081 | 205 ft | 4 kts | 353° |
| 2026-04-16 11:00 | 51.15788 | -0.17073 | 205 ft | 4 kts | 347° |
| 2026-04-16 11:00 | 51.15763 | -0.17064 | 207 ft | 2 kts | 347° |
| 2026-04-16 11:01 | 51.15761 | -0.17063 | 208 ft | 0 kts | 347° |
| 2026-04-16 11:02 | 51.15767 | -0.17066 | 210 ft | 2 kts | 348° |
| 2026-04-16 11:03 | 51.15787 | -0.17073 | 205 ft | 4 kts | 346° |
| 2026-04-16 11:03 | 51.15809 | -0.17104 | 217 ft | 5 kts | 296° |
| 2026-04-16 11:03 | 51.15798 | -0.17260 | 211 ft | 10 kts | 258° |
| 2026-04-16 11:04 | 51.15780 | -0.17390 | 205 ft | 13 kts | 257° |
| 2026-04-16 11:04 | 51.15728 | -0.17498 | 207 ft | 11 kts | 188° |
| 2026-04-16 11:04 | 51.15642 | -0.17477 | 207 ft | 14 kts | 167° |
| 2026-04-16 11:04 | 51.15537 | -0.17439 | 207 ft | 17 kts | 168° |
| 2026-04-16 11:05 | 51.15428 | -0.17405 | 207 ft | 0 kts | 170° |
| 2026-04-16 11:05 | 51.15418 | -0.17402 | 208 ft | 2 kts | 170° |
| 2026-04-16 11:05 | 51.15394 | -0.17396 | 205 ft | 4 kts | 171° |
| 2026-04-16 11:06 | 51.15358 | -0.17386 | 205 ft | 6 kts | 168° |
| 2026-04-16 11:06 | 51.15309 | -0.17367 | 207 ft | 8 kts | 162° |
| 2026-04-16 11:06 | 51.15254 | -0.17328 | 212 ft | 9 kts | 147° |
| 2026-04-16 11:06 | 51.15238 | -0.17312 | 216 ft | 0 kts | 144° |
| 2026-04-16 11:07 | 51.15238 | -0.17311 | 216 ft | 1 kts | 144° |
| 2026-04-16 11:07 | 51.15229 | -0.17301 | 214 ft | 2 kts | 145° |
| 2026-04-16 11:07 | 51.15212 | -0.17283 | 208 ft | 4 kts | 145° |
| 2026-04-16 11:08 | 51.15191 | -0.17250 | 208 ft | 5 kts | 126° |
| 2026-04-16 11:08 | 51.15186 | -0.17191 | 211 ft | 6 kts | 84° |
| 2026-04-16 11:08 | 51.15195 | -0.17113 | 205 ft | 8 kts | 80° |
| 2026-04-16 11:08 | 51.15207 | -0.17013 | 205 ft | 10 kts | 79° |
| 2026-04-16 11:09 | 51.15220 | -0.16894 | 210 ft | 12 kts | 84° |
| 2026-04-16 11:09 | 51.15179 | -0.16790 | 209 ft | 13 kts | 164° |
| 2026-04-16 11:09 | 51.15106 | -0.16917 | 208 ft | 29 kts | 256° |
| 2026-04-16 11:09 | 51.15036 | -0.17396 | 215 ft | 69 kts | 257° |
| 2026-04-16 11:10 | 51.14886 | -0.18461 | 209 ft | 126 kts | 258° |
| 2026-04-16 11:10 | 51.14659 | -0.19996 | 424 ft | 152 kts | 256° |
| 2026-04-16 11:10 | 51.14438 | -0.21732 | 1012 ft | 164 kts | 257° |
| 2026-04-16 11:10 | 51.14255 | -0.23556 | 1646 ft | 169 kts | 257° |
| 2026-04-16 11:11 | 51.14116 | -0.25429 | 2258 ft | 171 kts | 260° |
| 2026-04-16 11:11 | 51.14027 | -0.27302 | 2874 ft | 173 kts | 262° |
| 2026-04-16 11:11 | 51.13986 | -0.29216 | 3495 ft | 174 kts | 264° |
| 2026-04-16 11:11 | 51.14108 | -0.31195 | 3879 ft | 196 kts | 289° |
| 2026-04-16 11:12 | 51.15119 | -0.32847 | 4123 ft | 231 kts | 334° |
| 2026-04-16 11:12 | 51.16771 | -0.33061 | 4640 ft | 250 kts | 16° |
| 2026-04-16 11:12 | 51.18266 | -0.31629 | 5398 ft | 256 kts | 47° |
| 2026-04-16 11:12 | 51.19216 | -0.29256 | 6186 ft | 255 kts | 75° |
| 2026-04-16 11:13 | 51.19619 | -0.26509 | 6928 ft | 256 kts | 82° |
| 2026-04-16 11:13 | 51.19964 | -0.23703 | 7668 ft | 259 kts | 83° |
| 2026-04-16 11:13 | 51.20300 | -0.20862 | 8431 ft | 263 kts | 83° |
| 2026-04-16 11:13 | 51.20658 | -0.17886 | 8847 ft | 285 kts | 82° |
| 2026-04-16 11:14 | 51.21059 | -0.14686 | 9358 ft | 300 kts | 82° |
| 2026-04-16 11:14 | 51.21486 | -0.11395 | 10096 ft | 306 kts | 81° |
| 2026-04-16 11:14 | 51.21936 | -0.07958 | 10440 ft | 328 kts | 81° |
| 2026-04-16 11:14 | 51.22421 | -0.04267 | 10681 ft | 351 kts | 81° |
| 2026-04-16 11:15 | 51.22937 | -0.00346 | 11008 ft | 368 kts | 80° |
| 2026-04-16 11:15 | 51.23466 | 0.03679 | 11483 ft | 373 kts | 79° |
| 2026-04-16 11:15 | 51.23995 | 0.07704 | 12155 ft | 377 kts | 79° |
| 2026-04-16 11:15 | 51.24533 | 0.11835 | 12813 ft | 382 kts | 79° |
| 2026-04-16 11:16 | 51.25072 | 0.16014 | 13469 ft | 387 kts | 79° |
| 2026-04-16 11:16 | 51.25615 | 0.20240 | 14060 ft | 391 kts | 79° |
| 2026-04-16 11:16 | 51.26145 | 0.24524 | 14632 ft | 395 kts | 80° |
| 2026-04-16 11:16 | 51.26655 | 0.28851 | 15197 ft | 399 kts | 80° |
| 2026-04-16 11:17 | 51.27228 | 0.33207 | 15754 ft | 403 kts | 72° |
| 2026-04-16 11:17 | 51.28576 | 0.37126 | 16303 ft | 406 kts | 47° |
| 2026-04-16 11:17 | 51.30782 | 0.39889 | 16876 ft | 405 kts | 23° |
| 2026-04-16 11:17 | 51.33476 | 0.41030 | 17802 ft | 400 kts | 359° |
| 2026-04-16 11:18 | 51.36162 | 0.40358 | 18500 ft | 387 kts | 333° |
| 2026-04-16 11:18 | 51.38388 | 0.38081 | 19053 ft | 376 kts | 313° |
| 2026-04-16 11:18 | 51.40226 | 0.35107 | 19581 ft | 377 kts | 310° |
| 2026-04-16 11:18 | 51.42046 | 0.32074 | 20104 ft | 379 kts | 310° |
| 2026-04-16 11:19 | 51.44070 | 0.29325 | 20588 ft | 388 kts | 323° |
| 2026-04-16 11:19 | 51.46529 | 0.27420 | 21066 ft | 396 kts | 332° |
| 2026-04-16 11:19 | 51.49080 | 0.25690 | 21556 ft | 399 kts | 332° |
| 2026-04-16 11:19 | 51.51645 | 0.23959 | 22029 ft | 401 kts | 332° |
| 2026-04-16 11:20 | 51.54195 | 0.22238 | 22490 ft | 404 kts | 332° |
| 2026-04-16 11:20 | 51.56791 | 0.20480 | 22954 ft | 407 kts | 332° |
| 2026-04-16 11:20 | 51.59405 | 0.18707 | 23441 ft | 409 kts | 332° |
| 2026-04-16 11:20 | 51.61958 | 0.16723 | 23867 ft | 406 kts | 324° |
| 2026-04-16 11:21 | 51.64246 | 0.14087 | 24245 ft | 402 kts | 314° |
| 2026-04-16 11:21 | 51.66195 | 0.10896 | 24653 ft | 398 kts | 305° |
| 2026-04-16 11:21 | 51.67784 | 0.07272 | 25059 ft | 396 kts | 299° |
| 2026-04-16 11:21 | 51.69275 | 0.03533 | 25476 ft | 397 kts | 299° |
| 2026-04-16 11:22 | 51.70771 | -0.00206 | 25880 ft | 398 kts | 299° |
| 2026-04-16 11:22 | 51.72274 | -0.03960 | 26273 ft | 399 kts | 299° |
| 2026-04-16 11:22 | 51.73849 | -0.07657 | 26661 ft | 403 kts | 304° |
| 2026-04-16 11:22 | 51.75802 | -0.10955 | 27042 ft | 410 kts | 314° |
| 2026-04-16 11:23 | 51.78135 | -0.13690 | 27408 ft | 419 kts | 323° |
| 2026-04-16 11:23 | 51.80657 | -0.16066 | 27765 ft | 420 kts | 323° |
| 2026-04-16 11:23 | 51.83187 | -0.18459 | 28165 ft | 422 kts | 323° |
| 2026-04-16 11:23 | 51.85718 | -0.20868 | 28521 ft | 423 kts | 323° |
| 2026-04-16 11:24 | 51.88256 | -0.23292 | 28866 ft | 424 kts | 322° |
| 2026-04-16 11:24 | 51.90794 | -0.25727 | 29206 ft | 425 kts | 322° |
| 2026-04-16 11:24 | 51.93342 | -0.28168 | 29589 ft | 425 kts | 322° |
| 2026-04-16 11:24 | 51.95882 | -0.30601 | 30050 ft | 423 kts | 322° |
| 2026-04-16 11:25 | 51.98414 | -0.33030 | 30475 ft | 421 kts | 322° |
| 2026-04-16 11:25 | 52.00930 | -0.35453 | 30891 ft | 418 kts | 322° |
| 2026-04-16 11:25 | 52.03422 | -0.37857 | 31319 ft | 416 kts | 321° |
| 2026-04-16 11:25 | 52.05859 | -0.40211 | 31760 ft | 413 kts | 321° |
| 2026-04-16 11:26 | 52.08322 | -0.42592 | 32175 ft | 411 kts | 321° |
| 2026-04-16 11:26 | 52.10772 | -0.44956 | 32593 ft | 408 kts | 321° |
| 2026-04-16 11:26 | 52.13208 | -0.47304 | 33017 ft | 406 kts | 320° |
| 2026-04-16 11:26 | 52.15630 | -0.49637 | 33451 ft | 403 kts | 320° |
| 2026-04-16 11:27 | 52.18035 | -0.51961 | 33883 ft | 400 kts | 320° |
| 2026-04-16 11:27 | 52.20418 | -0.54272 | 34267 ft | 398 kts | 320° |
| 2026-04-16 11:27 | 52.22792 | -0.56581 | 34555 ft | 397 kts | 320° |
| 2026-04-16 11:27 | 52.25165 | -0.58899 | 34804 ft | 398 kts | 320° |
| 2026-04-16 11:28 | 52.27538 | -0.61224 | 35048 ft | 398 kts | 320° |
| 2026-04-16 11:28 | 52.29923 | -0.63562 | 35288 ft | 400 kts | 320° |
| 2026-04-16 11:28 | 52.32317 | -0.65912 | 35465 ft | 402 kts | 320° |
| 2026-04-16 11:28 | 52.34717 | -0.68265 | 35684 ft | 403 kts | 321° |
| 2026-04-16 11:29 | 52.37129 | -0.70625 | 35864 ft | 404 kts | 321° |
| 2026-04-16 11:29 | 52.41981 | -0.75377 | 35923 ft | 407 kts | 321° |
| 2026-04-16 11:30 | 52.46840 | -0.80153 | 35923 ft | 407 kts | 321° |
| 2026-04-16 11:30 | 52.51700 | -0.84937 | 35926 ft | 407 kts | 321° |
| 2026-04-16 11:31 | 52.56564 | -0.89751 | 35923 ft | 409 kts | 321° |
| 2026-04-16 11:31 | 52.61440 | -0.94600 | 35924 ft | 410 kts | 321° |
| 2026-04-16 11:32 | 52.66291 | -0.99423 | 35923 ft | 410 kts | 321° |
| 2026-04-16 11:32 | 52.71167 | -1.04286 | 35922 ft | 410 kts | 320° |
| 2026-04-16 11:33 | 52.76041 | -1.09169 | 35969 ft | 410 kts | 320° |
| 2026-04-16 11:33 | 52.80929 | -1.14055 | 35939 ft | 411 kts | 321° |
| 2026-04-16 11:34 | 52.85795 | -1.18944 | 35924 ft | 411 kts | 320° |
| 2026-04-16 11:34 | 52.90683 | -1.23876 | 35919 ft | 411 kts | 320° |
| 2026-04-16 11:35 | 52.95570 | -1.28821 | 35913 ft | 412 kts | 320° |
| 2026-04-16 11:35 | 53.00463 | -1.33772 | 35943 ft | 412 kts | 321° |
| 2026-04-16 11:36 | 53.05367 | -1.38757 | 35912 ft | 413 kts | 320° |
| 2026-04-16 11:36 | 53.10267 | -1.43746 | 35899 ft | 414 kts | 320° |
| 2026-04-16 11:37 | 53.15183 | -1.48755 | 35885 ft | 413 kts | 320° |
| 2026-04-16 11:37 | 53.20062 | -1.53749 | 35883 ft | 414 kts | 320° |
| 2026-04-16 11:38 | 53.24979 | -1.58802 | 35915 ft | 415 kts | 320° |
| 2026-04-16 11:38 | 53.29901 | -1.63870 | 35896 ft | 416 kts | 320° |
| 2026-04-16 11:39 | 53.34826 | -1.68951 | 35884 ft | 416 kts | 320° |
| 2026-04-16 11:39 | 53.39749 | -1.74058 | 35879 ft | 416 kts | 320° |
| 2026-04-16 11:40 | 53.44675 | -1.79185 | 35875 ft | 417 kts | 320° |
| 2026-04-16 11:40 | 53.49600 | -1.84313 | 35879 ft | 417 kts | 320° |
| 2026-04-16 11:41 | 53.54488 | -1.89404 | 35878 ft | 417 kts | 320° |
| 2026-04-16 11:41 | 53.59421 | -1.94566 | 35875 ft | 417 kts | 320° |
| 2026-04-16 11:42 | 53.64350 | -1.99735 | 35880 ft | 417 kts | 320° |
| 2026-04-16 11:42 | 53.69273 | -2.04929 | 35880 ft | 417 kts | 320° |
| 2026-04-16 11:43 | 53.73361 | -2.09245 | 35911 ft | 418 kts | 321° |
| 2026-04-16 11:43 | 53.78770 | -2.13322 | 35873 ft | 429 kts | 330° |
| 2026-04-16 11:44 | 53.84323 | -2.17097 | 35855 ft | 430 kts | 329° |
| 2026-04-16 11:44 | 53.89890 | -2.20904 | 35858 ft | 431 kts | 329° |
| 2026-04-16 11:45 | 53.95458 | -2.24721 | 35861 ft | 431 kts | 329° |
| 2026-04-16 11:45 | 54.00990 | -2.28534 | 35883 ft | 432 kts | 329° |
| 2026-04-16 11:46 | 54.06501 | -2.32577 | 35870 ft | 430 kts | 327° |
| 2026-04-16 11:46 | 54.11930 | -2.36845 | 35866 ft | 430 kts | 327° |
| 2026-04-16 11:47 | 54.17364 | -2.41141 | 35861 ft | 431 kts | 327° |
| 2026-04-16 11:47 | 54.22820 | -2.45399 | 35897 ft | 431 kts | 327° |
| 2026-04-16 11:48 | 54.28292 | -2.49653 | 35866 ft | 432 kts | 327° |
| 2026-04-16 11:48 | 54.33758 | -2.53925 | 35854 ft | 432 kts | 327° |
| 2026-04-16 11:49 | 54.39239 | -2.58221 | 35854 ft | 433 kts | 327° |
| 2026-04-16 11:49 | 54.44690 | -2.62504 | 35847 ft | 433 kts | 327° |
| 2026-04-16 11:50 | 54.50164 | -2.66837 | 35874 ft | 433 kts | 327° |
| 2026-04-16 11:50 | 54.55657 | -2.71193 | 35858 ft | 434 kts | 327° |
| 2026-04-16 11:51 | 54.61144 | -2.75547 | 35848 ft | 434 kts | 327° |
| 2026-04-16 11:51 | 54.66638 | -2.79914 | 35835 ft | 435 kts | 327° |
| 2026-04-16 11:52 | 54.72124 | -2.84304 | 35870 ft | 435 kts | 327° |
| 2026-04-16 11:52 | 54.77623 | -2.88706 | 35855 ft | 435 kts | 327° |
| 2026-04-16 11:53 | 54.83118 | -2.93118 | 35839 ft | 435 kts | 327° |
| 2026-04-16 11:53 | 54.88574 | -2.97518 | 35834 ft | 435 kts | 327° |
| 2026-04-16 11:54 | 54.94070 | -3.01952 | 35830 ft | 435 kts | 327° |
| 2026-04-16 11:54 | 54.99564 | -3.06403 | 35850 ft | 436 kts | 327° |
| 2026-04-16 11:55 | 55.05057 | -3.10868 | 35823 ft | 436 kts | 327° |
| 2026-04-16 11:55 | 55.10549 | -3.15355 | 35813 ft | 436 kts | 327° |
| 2026-04-16 11:56 | 55.16047 | -3.19853 | 35799 ft | 436 kts | 327° |
| 2026-04-16 11:56 | 55.21531 | -3.24348 | 35805 ft | 436 kts | 327° |
| 2026-04-16 11:57 | 55.27035 | -3.28870 | 35816 ft | 437 kts | 327° |
| 2026-04-16 11:57 | 55.32543 | -3.33418 | 35803 ft | 438 kts | 327° |
| 2026-04-16 11:58 | 55.38043 | -3.37995 | 35785 ft | 438 kts | 327° |
| 2026-04-16 11:58 | 55.43559 | -3.42585 | 35774 ft | 439 kts | 327° |
| 2026-04-16 11:59 | 55.49079 | -3.47165 | 35813 ft | 439 kts | 328° |
| 2026-04-16 11:59 | 55.54618 | -3.51777 | 35785 ft | 440 kts | 328° |
| 2026-04-16 12:00 | 55.60144 | -3.56423 | 35770 ft | 440 kts | 328° |
| 2026-04-16 12:00 | 55.65672 | -3.61076 | 35761 ft | 440 kts | 328° |
| 2026-04-16 12:01 | 55.71211 | -3.65741 | 35763 ft | 441 kts | 328° |
| 2026-04-16 12:01 | 55.76713 | -3.70411 | 35776 ft | 441 kts | 328° |
| 2026-04-16 12:02 | 55.85022 | -3.77485 | 35759 ft | 442 kts | 328° |
| 2026-04-16 12:02 | 55.90569 | -3.82213 | 35755 ft | 442 kts | 328° |
| 2026-04-16 12:03 | 55.96119 | -3.86955 | 35752 ft | 442 kts | 328° |
| 2026-04-16 12:03 | 56.01662 | -3.91722 | 35752 ft | 442 kts | 327° |
| 2026-04-16 12:04 | 56.07167 | -3.96460 | 35747 ft | 442 kts | 328° |
| 2026-04-16 12:04 | 56.12703 | -4.01233 | 35758 ft | 441 kts | 327° |
| 2026-04-16 12:05 | 56.18228 | -4.06028 | 35754 ft | 441 kts | 327° |
| 2026-04-16 12:05 | 56.23747 | -4.10841 | 35777 ft | 440 kts | 327° |
| 2026-04-16 12:06 | 56.29262 | -4.15652 | 35758 ft | 441 kts | 328° |
| 2026-04-16 12:06 | 56.34789 | -4.20489 | 35739 ft | 441 kts | 327° |
| 2026-04-16 12:07 | 56.40312 | -4.25357 | 35731 ft | 441 kts | 327° |
| 2026-04-16 12:07 | 56.46118 | -4.29218 | 35720 ft | 455 kts | 344° |
| 2026-04-16 12:08 | 56.49296 | -4.29729 | 35715 ft | 463 kts | 355° |
| 2026-04-16 12:08 | 56.52533 | -4.29204 | 35732 ft | 470 kts | 2° |
| 2026-04-16 12:08 | 56.59021 | -4.27617 | 35707 ft | 471 kts | 2° |
| 2026-04-16 12:09 | 56.65524 | -4.26040 | 35701 ft | 472 kts | 2° |
| 2026-04-16 12:09 | 56.71994 | -4.24472 | 35695 ft | 472 kts | 2° |
| 2026-04-16 12:10 | 56.78510 | -4.22903 | 35726 ft | 473 kts | 2° |
| 2026-04-16 12:10 | 56.85009 | -4.21329 | 35548 ft | 464 kts | 2° |
| 2026-04-16 12:11 | 56.88170 | -4.20546 | 35409 ft | 452 kts | 2° |
| 2026-04-16 12:11 | 56.91206 | -4.19482 | 35291 ft | 446 kts | 13° |
| 2026-04-16 12:11 | 56.94018 | -4.17132 | 35166 ft | 444 kts | 29° |
| 2026-04-16 12:11 | 56.96391 | -4.13528 | 34932 ft | 443 kts | 46° |
| 2026-04-16 12:12 | 56.98145 | -4.08900 | 34702 ft | 443 kts | 64° |
| 2026-04-16 12:12 | 56.99162 | -4.03582 | 34461 ft | 442 kts | 81° |
| 2026-04-16 12:12 | 56.99379 | -3.98015 | 34209 ft | 436 kts | 98° |
| 2026-04-16 12:12 | 56.98822 | -3.92620 | 33996 ft | 427 kts | 115° |
| 2026-04-16 12:13 | 56.97579 | -3.87773 | 33739 ft | 414 kts | 131° |
| 2026-04-16 12:13 | 56.95786 | -3.83762 | 33462 ft | 400 kts | 146° |
| 2026-04-16 12:13 | 56.93637 | -3.80796 | 33197 ft | 385 kts | 160° |
| 2026-04-16 12:13 | 56.91239 | -3.78861 | 32916 ft | 370 kts | 173° |
| 2026-04-16 12:14 | 56.88768 | -3.77988 | 32654 ft | 355 kts | 185° |
| 2026-04-16 12:14 | 56.86331 | -3.77966 | 32388 ft | 347 kts | 191° |
| 2026-04-16 12:14 | 56.83937 | -3.78314 | 32127 ft | 342 kts | 195° |
| 2026-04-16 12:14 | 56.81589 | -3.78869 | 31862 ft | 339 kts | 197° |
| 2026-04-16 12:15 | 56.79263 | -3.79505 | 31604 ft | 337 kts | 197° |
| 2026-04-16 12:15 | 56.76952 | -3.80137 | 31295 ft | 336 kts | 197° |
| 2026-04-16 12:15 | 56.74643 | -3.80736 | 31041 ft | 334 kts | 197° |
| 2026-04-16 12:15 | 56.72383 | -3.81511 | 30787 ft | 324 kts | 205° |
| 2026-04-16 12:16 | 56.70326 | -3.83014 | 30538 ft | 314 kts | 215° |
| 2026-04-16 12:16 | 56.68500 | -3.85096 | 30289 ft | 306 kts | 224° |
| 2026-04-16 12:16 | 56.66934 | -3.87640 | 30047 ft | 299 kts | 232° |
| 2026-04-16 12:16 | 56.65662 | -3.90573 | 29760 ft | 293 kts | 241° |
| 2026-04-16 12:17 | 56.64709 | -3.93817 | 29480 ft | 288 kts | 250° |
| 2026-04-16 12:17 | 56.64098 | -3.97259 | 29193 ft | 285 kts | 258° |
| 2026-04-16 12:17 | 56.63818 | -4.00812 | 28906 ft | 284 kts | 266° |
| 2026-04-16 12:17 | 56.63864 | -4.04381 | 28617 ft | 283 kts | 274° |
| 2026-04-16 12:18 | 56.64233 | -4.07892 | 28348 ft | 284 kts | 282° |
| 2026-04-16 12:18 | 56.64930 | -4.11254 | 28068 ft | 286 kts | 290° |
| 2026-04-16 12:18 | 56.65948 | -4.14385 | 27793 ft | 290 kts | 299° |
| 2026-04-16 12:18 | 56.67266 | -4.17189 | 27512 ft | 295 kts | 307° |
| 2026-04-16 12:19 | 56.68861 | -4.19587 | 27247 ft | 301 kts | 316° |
| 2026-04-16 12:19 | 56.70708 | -4.21473 | 26978 ft | 309 kts | 326° |
| 2026-04-16 12:19 | 56.72766 | -4.22750 | 26710 ft | 317 kts | 336° |
| 2026-04-16 12:19 | 56.74958 | -4.23301 | 26451 ft | 327 kts | 348° |
| 2026-04-16 12:20 | 56.77253 | -4.23240 | 26233 ft | 332 kts | 354° |
| 2026-04-16 12:20 | 56.79567 | -4.22848 | 25973 ft | 335 kts | 357° |
| 2026-04-16 12:20 | 56.81879 | -4.22282 | 25725 ft | 335 kts | 358° |
| 2026-04-16 12:20 | 56.84178 | -4.21652 | 25470 ft | 334 kts | 358° |
| 2026-04-16 12:21 | 56.86468 | -4.21017 | 25212 ft | 331 kts | 358° |
| 2026-04-16 12:21 | 56.88740 | -4.20419 | 24959 ft | 329 kts | 357° |
| 2026-04-16 12:21 | 56.90990 | -4.19422 | 24707 ft | 342 kts | 15° |
| 2026-04-16 12:21 | 56.92993 | -4.16927 | 24457 ft | 358 kts | 41° |
| 2026-04-16 12:22 | 56.94338 | -4.13036 | 24212 ft | 368 kts | 70° |
| 2026-04-16 12:22 | 56.94703 | -4.08435 | 23970 ft | 365 kts | 98° |
| 2026-04-16 12:22 | 56.94063 | -4.04034 | 23737 ft | 354 kts | 125° |
| 2026-04-16 12:22 | 56.92631 | -4.00562 | 23499 ft | 333 kts | 149° |
| 2026-04-16 12:23 | 56.90725 | -3.98434 | 23230 ft | 311 kts | 172° |
| 2026-04-16 12:23 | 56.88690 | -3.97690 | 22952 ft | 290 kts | 191° |
| 2026-04-16 12:23 | 56.86704 | -3.97855 | 22685 ft | 283 kts | 196° |
| 2026-04-16 12:23 | 56.84760 | -3.98255 | 22408 ft | 280 kts | 198° |
| 2026-04-16 12:24 | 56.82833 | -3.98740 | 22137 ft | 278 kts | 199° |
| 2026-04-16 12:24 | 56.80922 | -3.99243 | 21866 ft | 277 kts | 198° |
| 2026-04-16 12:24 | 56.79020 | -3.99730 | 21597 ft | 276 kts | 198° |
| 2026-04-16 12:24 | 56.77203 | -4.00544 | 21285 ft | 262 kts | 213° |
| 2026-04-16 12:25 | 56.75671 | -4.02174 | 21033 ft | 251 kts | 227° |
| 2026-04-16 12:25 | 56.74483 | -4.04410 | 20767 ft | 242 kts | 240° |
| 2026-04-16 12:25 | 56.73688 | -4.07068 | 20505 ft | 237 kts | 252° |
| 2026-04-16 12:25 | 56.73308 | -4.09928 | 20258 ft | 234 kts | 265° |
| 2026-04-16 12:26 | 56.73344 | -4.12881 | 20003 ft | 235 kts | 277° |
| 2026-04-16 12:26 | 56.73810 | -4.15747 | 19760 ft | 239 kts | 290° |
| 2026-04-16 12:26 | 56.74687 | -4.18327 | 19503 ft | 246 kts | 303° |
| 2026-04-16 12:26 | 56.75958 | -4.20472 | 19253 ft | 255 kts | 317° |
| 2026-04-16 12:27 | 56.77581 | -4.21928 | 19036 ft | 267 kts | 333° |
| 2026-04-16 12:27 | 56.79463 | -4.22466 | 18790 ft | 282 kts | 351° |
| 2026-04-16 12:27 | 56.81451 | -4.22279 | 18552 ft | 288 kts | 356° |
| 2026-04-16 12:27 | 56.83441 | -4.21865 | 18312 ft | 289 kts | 358° |
| 2026-04-16 12:28 | 56.85430 | -4.21360 | 18047 ft | 288 kts | 359° |
| 2026-04-16 12:28 | 56.87415 | -4.20835 | 17773 ft | 287 kts | 359° |
| 2026-04-16 12:28 | 56.89391 | -4.20311 | 17489 ft | 287 kts | 1° |
| 2026-04-16 12:28 | 56.91295 | -4.18987 | 17218 ft | 302 kts | 28° |
| 2026-04-16 12:29 | 56.92344 | -4.17271 | 17023 ft | 309 kts | 49° |
| 2026-04-16 12:29 | 56.93293 | -4.13725 | 16765 ft | 315 kts | 79° |
| 2026-04-16 12:29 | 56.93278 | -4.09781 | 16486 ft | 308 kts | 110° |
| 2026-04-16 12:29 | 56.92365 | -4.06370 | 16222 ft | 292 kts | 138° |
| 2026-04-16 12:30 | 56.90284 | -4.03670 | 15876 ft | 268 kts | 171° |
| 2026-04-16 12:30 | 56.88506 | -4.03187 | 15626 ft | 253 kts | 191° |
| 2026-04-16 12:30 | 56.87327 | -4.03328 | 15461 ft | 250 kts | 194° |
| 2026-04-16 12:30 | 56.85631 | -4.03676 | 15328 ft | 248 kts | 195° |
| 2026-04-16 12:31 | 56.83921 | -4.04097 | 15325 ft | 248 kts | 196° |
| 2026-04-16 12:31 | 56.82208 | -4.04531 | 15329 ft | 249 kts | 196° |
| 2026-04-16 12:31 | 56.80490 | -4.04960 | 15330 ft | 249 kts | 196° |
| 2026-04-16 12:31 | 56.78858 | -4.05790 | 15331 ft | 239 kts | 213° |
| 2026-04-16 12:32 | 56.77529 | -4.07486 | 15306 ft | 230 kts | 231° |
| 2026-04-16 12:32 | 56.76615 | -4.09832 | 15336 ft | 226 kts | 247° |
| 2026-04-16 12:32 | 56.76174 | -4.12557 | 15339 ft | 225 kts | 263° |
| 2026-04-16 12:32 | 56.76245 | -4.15400 | 15341 ft | 228 kts | 279° |
| 2026-04-16 12:33 | 56.76846 | -4.18106 | 15339 ft | 235 kts | 296° |
| 2026-04-16 12:33 | 56.77949 | -4.20369 | 15352 ft | 246 kts | 315° |
| 2026-04-16 12:33 | 56.79502 | -4.21839 | 15337 ft | 261 kts | 336° |
| 2026-04-16 12:33 | 56.81353 | -4.22153 | 15337 ft | 275 kts | 355° |
| 2026-04-16 12:34 | 56.83270 | -4.21831 | 15335 ft | 278 kts | 358° |
| 2026-04-16 12:34 | 56.85173 | -4.21389 | 15328 ft | 279 kts | 359° |
| 2026-04-16 12:34 | 56.87125 | -4.20894 | 15328 ft | 280 kts | 360° |
| 2026-04-16 12:34 | 56.89051 | -4.20406 | 15323 ft | 280 kts | 0° |
| 2026-04-16 12:35 | 56.90913 | -4.19372 | 15321 ft | 292 kts | 24° |
| 2026-04-16 12:35 | 56.92435 | -4.16842 | 15317 ft | 303 kts | 55° |
| 2026-04-16 12:35 | 56.93179 | -4.13241 | 15321 ft | 304 kts | 86° |
| 2026-04-16 12:35 | 56.92956 | -4.09462 | 15320 ft | 297 kts | 116° |
| 2026-04-16 12:36 | 56.91881 | -4.06362 | 15319 ft | 283 kts | 145° |
| 2026-04-16 12:36 | 56.90281 | -4.04506 | 15319 ft | 266 kts | 171° |
| 2026-04-16 12:36 | 56.88516 | -4.04014 | 15326 ft | 250 kts | 191° |
| 2026-04-16 12:36 | 56.86788 | -4.04268 | 15334 ft | 249 kts | 194° |
| 2026-04-16 12:37 | 56.85074 | -4.04654 | 15320 ft | 247 kts | 196° |
| 2026-04-16 12:37 | 56.83382 | -4.05111 | 15086 ft | 243 kts | 201° |
| 2026-04-16 12:37 | 56.81935 | -4.06432 | 14811 ft | 228 kts | 226° |
| 2026-04-16 12:37 | 56.80936 | -4.08616 | 14558 ft | 223 kts | 243° |
| 2026-04-16 12:38 | 56.80377 | -4.11233 | 14313 ft | 221 kts | 258° |
| 2026-04-16 12:38 | 56.80300 | -4.14031 | 14067 ft | 224 kts | 274° |
| 2026-04-16 12:38 | 56.80741 | -4.16781 | 13823 ft | 230 kts | 291° |
| 2026-04-16 12:38 | 56.81724 | -4.19159 | 13566 ft | 242 kts | 311° |
| 2026-04-16 12:39 | 56.83184 | -4.20789 | 13292 ft | 255 kts | 333° |
| 2026-04-16 12:39 | 56.84976 | -4.21288 | 13018 ft | 268 kts | 355° |
| 2026-04-16 12:39 | 56.86844 | -4.20999 | 12748 ft | 270 kts | 359° |
| 2026-04-16 12:39 | 56.88690 | -4.20580 | 12480 ft | 271 kts | 1° |
| 2026-04-16 12:40 | 56.90574 | -4.20110 | 12223 ft | 285 kts | 1° |
| 2026-04-16 12:40 | 56.92700 | -4.19590 | 11971 ft | 330 kts | 2° |
| 2026-04-16 12:40 | 56.95113 | -4.18996 | 11702 ft | 364 kts | 3° |
| 2026-04-16 12:40 | 56.97654 | -4.18348 | 11437 ft | 371 kts | 3° |
| 2026-04-16 12:41 | 57.00216 | -4.17681 | 11168 ft | 372 kts | 4° |
| 2026-04-16 12:41 | 57.02777 | -4.17019 | 10908 ft | 371 kts | 4° |
| 2026-04-16 12:41 | 57.05325 | -4.16370 | 10673 ft | 369 kts | 4° |
| 2026-04-16 12:41 | 57.07850 | -4.15733 | 10428 ft | 368 kts | 3° |
| 2026-04-16 12:42 | 57.10385 | -4.15102 | 10168 ft | 367 kts | 3° |
| 2026-04-16 12:42 | 57.12907 | -4.14486 | 9919 ft | 361 kts | 3° |
| 2026-04-16 12:42 | 57.15355 | -4.13884 | 9708 ft | 347 kts | 3° |
| 2026-04-16 12:42 | 57.17702 | -4.13300 | 9571 ft | 333 kts | 3° |
| 2026-04-16 12:43 | 57.19955 | -4.12738 | 9432 ft | 320 kts | 3° |
| 2026-04-16 12:43 | 57.22098 | -4.11885 | 9288 ft | 312 kts | 14° |
| 2026-04-16 12:43 | 57.24122 | -4.10568 | 9144 ft | 306 kts | 15° |
| 2026-04-16 12:43 | 57.26117 | -4.09260 | 9003 ft | 304 kts | 14° |
| 2026-04-16 12:44 | 57.28111 | -4.07960 | 8862 ft | 303 kts | 15° |
| 2026-04-16 12:44 | 57.30096 | -4.06665 | 8728 ft | 302 kts | 15° |
| 2026-04-16 12:44 | 57.32080 | -4.05365 | 8467 ft | 303 kts | 15° |
| 2026-04-16 12:44 | 57.34067 | -4.04059 | 7975 ft | 303 kts | 15° |
| 2026-04-16 12:45 | 57.36046 | -4.02755 | 7548 ft | 301 kts | 15° |
| 2026-04-16 12:45 | 57.38015 | -4.01456 | 7124 ft | 300 kts | 16° |
| 2026-04-16 12:45 | 57.39992 | -4.00152 | 6695 ft | 300 kts | 15° |
| 2026-04-16 12:45 | 57.41952 | -3.98854 | 6314 ft | 298 kts | 16° |
| 2026-04-16 12:46 | 57.43902 | -3.97561 | 5895 ft | 296 kts | 15° |
| 2026-04-16 12:46 | 57.45821 | -3.96288 | 5440 ft | 296 kts | 16° |
| 2026-04-16 12:46 | 57.47777 | -3.94987 | 5046 ft | 294 kts | 15° |
| 2026-04-16 12:46 | 57.49675 | -3.93721 | 4629 ft | 293 kts | 15° |
| 2026-04-16 12:47 | 57.51591 | -3.92446 | 4231 ft | 291 kts | 15° |
| 2026-04-16 12:47 | 57.53502 | -3.91179 | 3634 ft | 295 kts | 15° |
| 2026-04-16 12:47 | 57.55455 | -3.89885 | 3167 ft | 295 kts | 15° |
| 2026-04-16 12:47 | 57.57348 | -3.88619 | 2997 ft | 283 kts | 15° |
| 2026-04-16 12:48 | 57.59159 | -3.87404 | 2879 ft | 269 kts | 15° |
| 2026-04-16 12:48 | 57.60879 | -3.86245 | 2764 ft | 257 kts | 16° |
| 2026-04-16 12:48 | 57.62525 | -3.85136 | 2642 ft | 245 kts | 15° |
| 2026-04-16 12:48 | 57.64101 | -3.84077 | 2551 ft | 238 kts | 15° |
| 2026-04-16 12:49 | 57.65662 | -3.83044 | 2475 ft | 237 kts | 15° |
| 2026-04-16 12:49 | 57.67213 | -3.82026 | 2420 ft | 236 kts | 15° |
| 2026-04-16 12:49 | 57.68767 | -3.81009 | 2366 ft | 237 kts | 15° |
| 2026-04-16 12:49 | 57.70325 | -3.79986 | 2313 ft | 237 kts | 15° |
| 2026-04-16 12:50 | 57.71889 | -3.79101 | 2252 ft | 231 kts | 0° |
| 2026-04-16 12:50 | 57.73373 | -3.79684 | 2198 ft | 214 kts | 320° |
| 2026-04-16 12:50 | 57.74291 | -3.81661 | 2141 ft | 201 kts | 285° |
| 2026-04-16 12:50 | 57.74385 | -3.84128 | 2056 ft | 187 kts | 249° |
| 2026-04-16 12:51 | 57.73601 | -3.85939 | 1975 ft | 180 kts | 211° |
| 2026-04-16 12:51 | 57.72374 | -3.86341 | 1978 ft | 184 kts | 182° |
| 2026-04-16 12:51 | 57.71154 | -3.86385 | 1992 ft | 165 kts | 193° |
| 2026-04-16 12:51 | 57.70079 | -3.86680 | 1970 ft | 149 kts | 194° |
| 2026-04-16 12:52 | 57.69102 | -3.86983 | 1967 ft | 138 kts | 195° |
| 2026-04-16 12:52 | 57.68162 | -3.87272 | 1970 ft | 136 kts | 195° |
| 2026-04-16 12:52 | 57.67234 | -3.87547 | 1974 ft | 134 kts | 194° |
| 2026-04-16 12:52 | 57.66319 | -3.87810 | 1981 ft | 131 kts | 196° |
| 2026-04-16 12:53 | 57.65434 | -3.88057 | 2019 ft | 130 kts | 196° |
| 2026-04-16 12:53 | 57.64547 | -3.88299 | 2012 ft | 128 kts | 195° |
| 2026-04-16 12:53 | 57.63667 | -3.88533 | 2008 ft | 128 kts | 195° |
| 2026-04-16 12:53 | 57.62782 | -3.88768 | 2004 ft | 129 kts | 195° |
| 2026-04-16 12:54 | 57.61905 | -3.89046 | 1998 ft | 126 kts | 204° |
| 2026-04-16 12:54 | 57.61155 | -3.89840 | 1995 ft | 125 kts | 230° |
| 2026-04-16 12:54 | 57.60588 | -3.91116 | 1869 ft | 131 kts | 229° |
| 2026-04-16 12:54 | 57.59982 | -3.92349 | 1666 ft | 128 kts | 229° |
| 2026-04-16 12:55 | 57.59392 | -3.93591 | 1469 ft | 129 kts | 230° |
| 2026-04-16 12:55 | 57.58807 | -3.94845 | 1286 ft | 128 kts | 230° |
| 2026-04-16 12:55 | 57.58209 | -3.96137 | 1115 ft | 131 kts | 230° |
| 2026-04-16 12:55 | 57.57600 | -3.97459 | 926 ft | 137 kts | 229° |
| 2026-04-16 12:56 | 57.56999 | -3.98765 | 737 ft | 130 kts | 229° |
| 2026-04-16 12:56 | 57.56420 | -4.00027 | 574 ft | 127 kts | 229° |
| 2026-04-16 12:56 | 57.55848 | -4.01273 | 390 ft | 126 kts | 229° |
| 2026-04-16 12:56 | 57.55284 | -4.02491 | 277 ft | 124 kts | 230° |
| 2026-04-16 12:57 | 57.54691 | -4.03780 | 96 ft | 132 kts | 230° |
| 2026-04-16 12:57 | 57.54129 | -4.05054 | 45 ft | 129 kts | 232° |
| 2026-04-16 12:57 | 57.53534 | -4.06515 | 370 ft | 154 kts | 231° |
| 2026-04-16 12:57 | 57.52793 | -4.08180 | 850 ft | 186 kts | 230° |
| 2026-04-16 12:58 | 57.52003 | -4.10145 | 1658 ft | 192 kts | 233° |
| 2026-04-16 12:58 | 57.51216 | -4.12098 | 2356 ft | 187 kts | 233° |
| 2026-04-16 12:58 | 57.50408 | -4.13989 | 3053 ft | 187 kts | 225° |
| 2026-04-16 12:58 | 57.49256 | -4.15202 | 3755 ft | 199 kts | 197° |
| 2026-04-16 12:59 | 57.47850 | -4.14944 | 4454 ft | 219 kts | 163° |
| 2026-04-16 12:59 | 57.46674 | -4.12989 | 4674 ft | 238 kts | 124° |
| 2026-04-16 12:59 | 57.46347 | -4.09967 | 4367 ft | 247 kts | 82° |
| 2026-04-16 13:00 | 57.48586 | -4.05682 | 3784 ft | 239 kts | 11° |
| 2026-04-16 13:00 | 57.50201 | -4.05005 | 3455 ft | 238 kts | 4° |
| 2026-04-16 13:00 | 57.51822 | -4.04516 | 3106 ft | 240 kts | 2° |
| 2026-04-16 13:00 | 57.53471 | -4.03872 | 2962 ft | 241 kts | 14° |
| 2026-04-16 13:01 | 57.54941 | -4.02423 | 2834 ft | 246 kts | 37° |
| 2026-04-16 13:01 | 57.56154 | -4.00164 | 2711 ft | 248 kts | 46° |
| 2026-04-16 13:01 | 57.57303 | -3.97782 | 2566 ft | 246 kts | 46° |
| 2026-04-16 13:01 | 57.58431 | -3.95390 | 2443 ft | 246 kts | 47° |
| 2026-04-16 13:02 | 57.59560 | -3.92974 | 2333 ft | 247 kts | 48° |
| 2026-04-16 13:02 | 57.60684 | -3.90571 | 2199 ft | 243 kts | 47° |
| 2026-04-16 13:02 | 57.61788 | -3.88211 | 2078 ft | 240 kts | 47° |
| 2026-04-16 13:02 | 57.62889 | -3.85866 | 1998 ft | 240 kts | 47° |
| 2026-04-16 13:03 | 57.63994 | -3.83514 | 2000 ft | 241 kts | 48° |
| 2026-04-16 13:03 | 57.65094 | -3.81182 | 1997 ft | 238 kts | 48° |
| 2026-04-16 13:03 | 57.66193 | -3.78854 | 1976 ft | 240 kts | 47° |
| 2026-04-16 13:03 | 57.67385 | -3.76674 | 1982 ft | 238 kts | 26° |
| 2026-04-16 13:04 | 57.68916 | -3.76057 | 1979 ft | 221 kts | 342° |
| 2026-04-16 13:04 | 57.70205 | -3.77329 | 1979 ft | 206 kts | 304° |
| 2026-04-16 13:04 | 57.70803 | -3.79635 | 1978 ft | 195 kts | 272° |
| 2026-04-16 13:04 | 57.70620 | -3.82044 | 1979 ft | 191 kts | 243° |
| 2026-04-16 13:05 | 57.69737 | -3.83844 | 1976 ft | 193 kts | 207° |
| 2026-04-16 13:05 | 57.68456 | -3.84624 | 1975 ft | 195 kts | 202° |
| 2026-04-16 13:05 | 57.67169 | -3.85468 | 1977 ft | 196 kts | 202° |
| 2026-04-16 13:05 | 57.65875 | -3.86326 | 1979 ft | 198 kts | 202° |
| 2026-04-16 13:06 | 57.64615 | -3.87159 | 2018 ft | 183 kts | 204° |
| 2026-04-16 13:06 | 57.63477 | -3.87906 | 1995 ft | 164 kts | 204° |
| 2026-04-16 13:06 | 57.62469 | -3.88583 | 1987 ft | 144 kts | 208° |
| 2026-04-16 13:06 | 57.61656 | -3.89474 | 1988 ft | 130 kts | 220° |
| 2026-04-16 13:07 | 57.60981 | -3.90532 | 1996 ft | 124 kts | 225° |
| 2026-04-16 13:07 | 57.60379 | -3.91637 | 2024 ft | 121 kts | 229° |
| 2026-04-16 13:07 | 57.59796 | -3.92795 | 1749 ft | 121 kts | 229° |
| 2026-04-16 13:07 | 57.59244 | -3.93940 | 1494 ft | 116 kts | 230° |
| 2026-04-16 13:08 | 57.58712 | -3.95069 | 1290 ft | 117 kts | 231° |
| 2026-04-16 13:08 | 57.58165 | -3.96244 | 1105 ft | 123 kts | 231° |
| 2026-04-16 13:08 | 57.57614 | -3.97436 | 938 ft | 118 kts | 229° |
| 2026-04-16 13:08 | 57.57079 | -3.98596 | 751 ft | 119 kts | 228° |
| 2026-04-16 13:09 | 57.56543 | -3.99762 | 612 ft | 114 kts | 227° |
| 2026-04-16 13:09 | 57.56017 | -4.00907 | 463 ft | 112 kts | 227° |
| 2026-04-16 13:09 | 57.55521 | -4.01980 | 295 ft | 109 kts | 227° |
| 2026-04-16 13:09 | 57.55002 | -4.03088 | 209 ft | 117 kts | 228° |
| 2026-04-16 13:10 | 57.54498 | -4.04203 | 29 ft | 98 kts | 228° |
| 2026-04-16 13:10 | 57.54325 | -4.04585 | 36 ft | 15 kts | 231° |
| 2026-04-16 13:10 | 57.54252 | -4.04799 | 34 ft | 22 kts | 262° |
| 2026-04-16 13:10 | 57.54292 | -4.05087 | 37 ft | 26 kts | 290° |
| 2026-04-16 13:11 | 57.54360 | -4.05445 | 36 ft | 33 kts | 288° |
| 2026-04-16 13:11 | 57.54436 | -4.05836 | 33 ft | 30 kts | 289° |
| 2026-04-16 13:11 | 57.54430 | -4.06110 | 40 ft | 20 kts | 233° |
| 2026-04-16 13:11 | 57.54329 | -4.06254 | 45 ft | 19 kts | 191° |
| 2026-04-16 13:12 | 57.54191 | -4.06214 | 45 ft | 22 kts | 157° |
| 2026-04-16 13:12 | 57.54082 | -4.06142 | 47 ft | 12 kts | 178° |
| 2026-04-16 13:12 | 57.54034 | -4.06197 | 47 ft | 7 kts | 262° |
| 2026-04-16 13:12 | 57.54034 | -4.06235 | 47 ft | 0 kts | 273° |